createdAt,value
2023-04-29T00:00:07.000Z,9.10
2023-04-29T00:02:33.759Z,9.10
2023-04-29T00:05:00.848Z,9.10
2023-04-29T00:07:28.382Z,9.10
2023-04-29T00:09:54.948Z,9.20
2023-04-29T00:12:21.479Z,9.10
2023-04-29T00:14:47.992Z,9.10
2023-04-29T00:17:16.142Z,9.20
2023-04-29T00:19:43.360Z,9.20
2023-04-29T00:22:09.868Z,9.20
2023-04-29T00:24:36.487Z,9.30
2023-04-29T00:27:03.154Z,9.30
2023-04-29T00:29:29.668Z,9.30
2023-04-29T00:31:56.180Z,9.40
2023-04-29T00:34:22.926Z,9.40
2023-04-29T00:36:49.482Z,9.40
2023-04-29T00:39:16.129Z,9.50
2023-04-29T00:41:42.722Z,9.60
2023-04-29T00:44:09.940Z,9.60
2023-04-29T00:46:36.847Z,9.70
2023-04-29T00:49:03.647Z,9.80
2023-04-29T00:51:30.186Z,9.80
2023-04-29T00:53:56.965Z,9.90
2023-04-29T00:56:23.456Z,9.90
2023-04-29T00:58:51.752Z,9.90
2023-04-29T01:01:19.345Z,9.90
2023-04-29T01:03:46.054Z,10.00
2023-04-29T01:06:12.740Z,10.00
2023-04-29T01:08:46.280Z,10.00
2023-04-29T01:11:12.812Z,10.00
2023-04-29T01:13:48.211Z,10.00
2023-04-29T01:16:21.696Z,9.90
2023-04-29T01:18:50.392Z,9.90
2023-04-29T01:21:18.074Z,9.90
2023-04-29T01:23:45.734Z,10.00
2023-04-29T01:26:12.625Z,9.90
2023-04-29T01:28:39.128Z,9.90
2023-04-29T01:31:06.496Z,9.90
2023-04-29T01:33:39.052Z,9.90
2023-04-29T01:36:16.643Z,10.00
2023-04-29T01:39:02.068Z,10.00
2023-04-29T01:41:31.757Z,10.20
2023-04-29T01:43:58.633Z,10.10
2023-04-29T01:46:25.427Z,10.10
2023-04-29T01:48:56.180Z,10.10
2023-04-29T01:51:22.684Z,10.20
2023-04-29T01:53:49.244Z,10.20
2023-04-29T01:56:16.024Z,10.10
2023-04-29T01:58:42.610Z,10.20
2023-04-29T02:01:10.545Z,10.20
2023-04-29T02:03:37.759Z,10.20
2023-04-29T02:06:04.433Z,10.30
2023-04-29T02:08:30.942Z,10.30
2023-04-29T02:10:58.154Z,10.30
2023-04-29T02:13:24.711Z,10.40
2023-04-29T02:15:51.286Z,10.40
2023-04-29T02:18:17.788Z,10.40
2023-04-29T02:20:44.350Z,10.50
2023-04-29T02:23:10.857Z,10.40
2023-04-29T02:25:37.396Z,10.40
2023-04-29T02:28:03.965Z,10.40
2023-04-29T02:30:30.917Z,10.50
2023-04-29T02:32:57.807Z,10.40
2023-04-29T02:35:24.333Z,10.40
2023-04-29T02:37:50.850Z,10.40
2023-04-29T02:40:17.427Z,10.40
2023-04-29T02:42:44.441Z,10.40
2023-04-29T02:45:11.116Z,10.50
2023-04-29T02:47:37.868Z,10.50
2023-04-29T02:50:04.803Z,10.60
2023-04-29T02:52:31.933Z,10.60
2023-04-29T02:54:58.427Z,10.60
2023-04-29T02:57:24.995Z,10.60
2023-04-29T02:59:51.756Z,10.60
2023-04-29T03:02:18.572Z,10.70
2023-04-29T03:04:45.655Z,10.70
2023-04-29T03:07:12.242Z,10.80
2023-04-29T03:09:39.145Z,10.80
2023-04-29T03:12:05.692Z,10.70
2023-04-29T03:14:32.734Z,10.60
2023-04-29T03:16:59.369Z,10.60
2023-04-29T03:19:25.956Z,10.50
2023-04-29T03:21:53.938Z,10.40
2023-04-29T03:24:20.700Z,10.40
2023-04-29T03:26:47.364Z,10.40
2023-04-29T03:29:13.895Z,10.40
2023-04-29T03:31:40.524Z,10.40
2023-04-29T03:34:07.111Z,10.40
2023-04-29T03:36:33.694Z,10.40
2023-04-29T03:39:00.241Z,10.40
2023-04-29T03:41:26.967Z,10.40
2023-04-29T03:43:54.806Z,10.50
2023-04-29T03:46:21.403Z,10.40
2023-04-29T03:48:48.251Z,10.50
2023-04-29T03:51:14.854Z,10.40
2023-04-29T03:53:41.376Z,10.50
2023-04-29T03:56:07.897Z,10.40
2023-04-29T03:58:34.481Z,10.40
2023-04-29T04:01:00.971Z,10.40
2023-04-29T04:03:28.309Z,10.40
2023-04-29T04:05:54.932Z,10.40
2023-04-29T04:08:21.441Z,10.40
2023-04-29T04:10:47.984Z,10.40
2023-04-29T04:13:14.491Z,10.40
2023-04-29T04:15:42.347Z,10.40
2023-04-29T04:18:08.993Z,10.40
2023-04-29T04:20:37.070Z,10.30
2023-04-29T04:23:03.606Z,10.40
2023-04-29T04:25:30.317Z,10.30
2023-04-29T04:27:56.815Z,10.40
2023-04-29T04:30:23.378Z,10.40
2023-04-29T04:32:49.909Z,10.40
2023-04-29T04:35:16.524Z,10.40
2023-04-29T04:37:43.131Z,10.40
2023-04-29T04:40:11.352Z,10.40
2023-04-29T04:42:37.853Z,10.40
2023-04-29T04:45:04.539Z,10.40
2023-04-29T04:47:31.095Z,10.50
2023-04-29T04:49:57.668Z,10.50
2023-04-29T04:52:24.174Z,10.50
2023-04-29T04:54:50.776Z,10.50
2023-04-29T04:57:17.328Z,10.50
2023-04-29T04:59:44.389Z,10.50
2023-04-29T05:02:11.137Z,10.50
2023-04-29T05:04:37.713Z,10.50
2023-04-29T05:07:04.248Z,10.60
2023-04-29T05:09:30.885Z,10.60
2023-04-29T05:11:59.191Z,10.60
2023-04-29T05:14:26.095Z,10.60
2023-04-29T05:16:53.022Z,10.60
2023-04-29T05:19:19.750Z,10.60
2023-04-29T05:21:46.297Z,10.60
2023-04-29T05:24:12.814Z,10.60
2023-04-29T05:26:39.378Z,10.60
2023-04-29T05:29:05.895Z,10.60
2023-04-29T05:31:32.416Z,10.70
2023-04-29T05:33:58.974Z,10.70
2023-04-29T05:36:25.487Z,10.90
2023-04-29T05:38:52.103Z,11.00
2023-04-29T05:41:18.641Z,11.10
2023-04-29T05:43:45.259Z,11.10
2023-04-29T05:46:11.824Z,11.10
2023-04-29T05:48:38.869Z,11.20
2023-04-29T05:51:05.433Z,11.30
2023-04-29T05:53:33.224Z,11.30
2023-04-29T05:55:59.798Z,11.30
2023-04-29T05:58:26.311Z,11.30
2023-04-29T06:00:52.811Z,11.40
2023-04-29T06:03:19.428Z,11.40
2023-04-29T06:05:46.458Z,11.30
2023-04-29T06:08:13.268Z,11.30
2023-04-29T06:10:39.762Z,11.30
2023-04-29T06:13:06.274Z,11.30
2023-04-29T06:15:32.932Z,11.30
2023-04-29T06:17:59.505Z,11.20
2023-04-29T06:20:26.511Z,11.20
2023-04-29T06:22:53.048Z,11.20
2023-04-29T06:25:19.608Z,11.20
2023-04-29T06:27:46.159Z,11.20
2023-04-29T06:30:12.943Z,11.20
2023-04-29T06:32:40.014Z,11.20
2023-04-29T06:35:06.897Z,11.20
2023-04-29T06:37:34.401Z,11.40
2023-04-29T06:40:01.812Z,11.50
2023-04-29T06:42:28.669Z,11.50
2023-04-29T06:44:55.182Z,11.50
2023-04-29T06:47:21.775Z,11.60
2023-04-29T06:49:48.485Z,11.60
2023-04-29T06:52:15.057Z,11.70
2023-04-29T06:54:41.636Z,11.70
2023-04-29T06:57:08.194Z,11.70
2023-04-29T06:59:34.708Z,11.70
2023-04-29T07:02:01.209Z,11.70
2023-04-29T07:04:27.770Z,11.70
2023-04-29T07:06:54.356Z,11.70
2023-04-29T07:09:20.993Z,11.70
2023-04-29T07:11:47.505Z,11.70
2023-04-29T07:14:14.146Z,11.90
2023-04-29T07:16:40.831Z,12.00
2023-04-29T07:19:07.365Z,12.10
2023-04-29T07:21:33.929Z,12.30
2023-04-29T07:24:02.364Z,12.30
2023-04-29T07:26:28.875Z,12.30
2023-04-29T07:28:55.408Z,12.40
2023-04-29T07:31:22.435Z,12.40
2023-04-29T07:33:49.297Z,12.60
2023-04-29T07:36:16.060Z,12.70
2023-04-29T07:38:42.571Z,12.80
2023-04-29T07:41:09.085Z,12.90
2023-04-29T07:43:36.332Z,13.00
2023-04-29T07:46:02.905Z,13.00
2023-04-29T07:48:29.472Z,12.90
2023-04-29T07:50:56.054Z,12.70
2023-04-29T07:53:22.559Z,12.60
2023-04-29T07:55:49.233Z,12.40
2023-04-29T07:58:15.851Z,12.30
2023-04-29T08:00:42.788Z,12.20
2023-04-29T08:03:09.387Z,12.10
2023-04-29T08:05:36.653Z,12.20
2023-04-29T08:08:03.284Z,12.10
2023-04-29T08:10:29.799Z,12.10
2023-04-29T08:12:56.383Z,12.20
2023-04-29T08:15:22.947Z,12.10
2023-04-29T08:17:49.570Z,12.20
2023-04-29T08:20:16.217Z,12.10
2023-04-29T08:22:42.804Z,12.20
2023-04-29T08:25:09.531Z,12.30
2023-04-29T08:27:36.114Z,12.40
2023-04-29T08:30:02.691Z,12.50
2023-04-29T08:32:29.473Z,12.60
2023-04-29T08:34:56.454Z,12.60
2023-04-29T08:37:23.151Z,12.60
2023-04-29T08:39:49.658Z,12.60
2023-04-29T08:42:17.507Z,12.50
2023-04-29T08:44:44.243Z,12.40
2023-04-29T08:47:11.072Z,12.20
2023-04-29T08:49:38.237Z,12.10
2023-04-29T08:52:04.991Z,12.10
2023-04-29T08:54:31.741Z,12.10
2023-04-29T08:56:59.145Z,12.20
2023-04-29T08:59:26.196Z,12.20
2023-04-29T09:01:54.119Z,12.30
2023-04-29T09:04:30.502Z,12.30
2023-04-29T09:06:57.780Z,12.20
2023-04-29T09:09:27.676Z,12.20
2023-04-29T09:11:55.319Z,12.20
2023-04-29T09:14:23.008Z,12.20
2023-04-29T09:16:49.803Z,12.30
2023-04-29T09:19:29.792Z,12.40
2023-04-29T09:21:56.923Z,12.70
2023-04-29T09:24:27.635Z,12.90
2023-04-29T09:26:54.273Z,13.00
2023-04-29T09:29:20.862Z,13.10
2023-04-29T09:31:47.787Z,13.30
2023-04-29T09:34:14.654Z,13.40
2023-04-29T09:36:42.519Z,13.50
2023-04-29T09:39:12.506Z,13.50
2023-04-29T09:41:40.353Z,13.50
2023-04-29T09:44:07.599Z,13.50
2023-04-29T09:46:34.553Z,13.40
2023-04-29T09:49:01.181Z,13.40
2023-04-29T09:51:27.937Z,13.50
2023-04-29T09:53:54.468Z,13.70
2023-04-29T09:56:21.515Z,13.70
2023-04-29T09:58:48.155Z,13.70
2023-04-29T10:01:18.012Z,13.60
2023-04-29T10:03:45.347Z,13.50
2023-04-29T10:06:12.384Z,13.40
2023-04-29T10:08:41.337Z,13.20
2023-04-29T10:11:07.987Z,13.20
2023-04-29T10:13:35.593Z,13.30
2023-04-29T10:16:14.364Z,13.40
2023-04-29T10:18:41.827Z,13.40
2023-04-29T10:21:11.572Z,13.60
2023-04-29T10:23:38.932Z,13.60
2023-04-29T10:26:06.093Z,13.50
2023-04-29T10:28:32.908Z,13.20
2023-04-29T10:31:02.245Z,12.90
2023-04-29T10:33:31.105Z,12.70
2023-04-29T10:35:58.222Z,12.40
2023-04-29T10:38:27.732Z,12.30
2023-04-29T10:40:56.111Z,12.20
2023-04-29T10:43:23.486Z,12.00
2023-04-29T10:45:50.020Z,11.90
2023-04-29T10:48:18.700Z,11.80
2023-04-29T10:50:48.449Z,11.60
2023-04-29T10:53:17.396Z,11.60
2023-04-29T10:55:46.878Z,11.50
2023-04-29T10:58:32.074Z,11.60
2023-04-29T11:00:59.044Z,11.60
2023-04-29T11:03:44.645Z,11.60
2023-04-29T11:06:11.821Z,11.60
2023-04-29T11:08:39.888Z,11.70
2023-04-29T11:11:09.405Z,11.70
2023-04-29T11:13:39.856Z,11.70
2023-04-29T11:16:06.404Z,11.70
2023-04-29T11:18:34.583Z,11.70
2023-04-29T11:21:04.069Z,11.60
2023-04-29T11:23:31.566Z,11.60
2023-04-29T11:25:58.108Z,11.60
2023-04-29T11:28:24.634Z,11.60
2023-04-29T11:30:51.467Z,11.70
2023-04-29T11:33:19.655Z,11.70
2023-04-29T11:35:47.138Z,11.90
2023-04-29T11:38:13.658Z,12.00
2023-04-29T11:40:50.240Z,12.10
2023-04-29T11:43:18.342Z,12.20
2023-04-29T11:45:45.530Z,12.10
2023-04-29T11:48:22.237Z,12.00
2023-04-29T11:50:49.621Z,12.00
2023-04-29T11:53:16.178Z,12.00
2023-04-29T11:55:43.521Z,12.00
2023-04-29T11:58:10.194Z,12.00
2023-04-29T12:00:36.815Z,11.90
2023-04-29T12:03:16.285Z,11.80
2023-04-29T12:05:46.395Z,11.90
2023-04-29T12:08:12.913Z,11.90
2023-04-29T12:10:39.424Z,11.80
2023-04-29T12:13:06.231Z,11.80
2023-04-29T12:15:33.676Z,11.90
2023-04-29T12:18:00.677Z,11.90
2023-04-29T12:20:29.031Z,11.80
2023-04-29T12:22:55.883Z,11.80
2023-04-29T12:25:25.249Z,11.90
2023-04-29T12:27:51.815Z,11.90
2023-04-29T12:30:20.138Z,12.00
2023-04-29T12:32:48.459Z,12.20
2023-04-29T12:35:16.775Z,12.30
2023-04-29T12:37:43.367Z,12.40
2023-04-29T12:40:14.044Z,12.60
2023-04-29T12:42:41.054Z,12.60
2023-04-29T12:45:08.193Z,12.60
2023-04-29T12:47:35.030Z,12.60
2023-04-29T12:50:01.713Z,12.80
2023-04-29T12:52:28.267Z,12.80
2023-04-29T12:54:54.966Z,12.60
2023-04-29T12:57:22.918Z,12.50
2023-04-29T12:59:49.450Z,12.40
2023-04-29T13:02:16.324Z,12.50
2023-04-29T13:04:43.983Z,12.50
2023-04-29T13:07:10.700Z,12.40
2023-04-29T13:09:38.111Z,12.30
2023-04-29T13:12:05.596Z,12.40
2023-04-29T13:14:32.140Z,12.40
2023-04-29T13:16:58.727Z,12.40
2023-04-29T13:19:39.709Z,12.40
2023-04-29T13:22:13.224Z,12.40
2023-04-29T13:24:39.728Z,12.50
2023-04-29T13:27:06.255Z,12.60
2023-04-29T13:29:32.820Z,12.50
2023-04-29T13:31:59.395Z,12.50
2023-04-29T13:34:25.954Z,12.50
2023-04-29T13:36:52.474Z,12.40
2023-04-29T13:39:20.377Z,12.30
2023-04-29T13:41:47.050Z,12.30
2023-04-29T13:46:44.372Z,12.10
2023-04-29T13:49:38.460Z,12.00
2023-04-29T13:54:57.542Z,11.80
2023-04-29T13:58:12.459Z,11.80
2023-04-29T14:00:14.794Z,11.90
2023-04-29T14:05:25.650Z,11.90
2023-04-29T14:07:52.329Z,11.90
2023-04-29T14:10:18.929Z,12.00
2023-04-29T14:12:45.622Z,12.10
2023-04-29T14:15:12.147Z,12.00
2023-04-29T14:17:38.719Z,12.10
2023-04-29T14:20:05.608Z,12.10
2023-04-29T14:25:29.150Z,12.10
2023-04-29T14:27:56.776Z,12.20
2023-04-29T14:30:23.423Z,12.20
2023-04-29T14:32:50.052Z,12.10
2023-04-29T14:35:17.009Z,12.10
2023-04-29T14:37:43.660Z,12.00
2023-04-29T14:40:11.350Z,12.00
2023-04-29T14:42:38.017Z,12.00
2023-04-29T14:45:04.834Z,12.10
2023-04-29T14:47:31.510Z,12.20
2023-04-29T14:49:58.095Z,12.40
2023-04-29T14:52:24.652Z,12.60
2023-04-29T14:54:51.598Z,12.60
2023-04-29T14:57:18.275Z,12.50
2023-04-29T14:59:44.842Z,12.60
2023-04-29T15:02:11.581Z,12.70
2023-04-29T15:04:39.745Z,12.80
2023-04-29T15:07:06.546Z,12.80
2023-04-29T15:09:33.359Z,12.70
2023-04-29T15:11:59.883Z,12.70
2023-04-29T15:14:26.384Z,12.60
2023-04-29T15:16:53.105Z,12.60
2023-04-29T15:19:20.201Z,12.60
2023-04-29T15:21:46.716Z,12.60
2023-04-29T15:24:14.404Z,12.60
2023-04-29T15:26:40.927Z,12.40
2023-04-29T15:29:07.480Z,12.20
2023-04-29T15:31:34.319Z,12.10
2023-04-29T15:34:00.956Z,12.00
2023-04-29T15:36:29.407Z,11.90
2023-04-29T15:38:55.935Z,11.90
2023-04-29T15:41:22.686Z,11.80
2023-04-29T15:43:49.183Z,11.80
2023-04-29T15:46:15.857Z,11.80
2023-04-29T15:48:42.795Z,11.80
2023-04-29T15:51:10.306Z,11.80
2023-04-29T15:53:36.802Z,11.80
2023-04-29T15:56:03.403Z,11.70
2023-04-29T15:58:29.913Z,11.60
2023-04-29T16:00:56.541Z,11.50
2023-04-29T16:03:23.507Z,11.50
2023-04-29T16:05:50.764Z,11.50
2023-04-29T16:08:17.317Z,11.50
2023-04-29T16:10:45.696Z,11.50
2023-04-29T16:13:12.480Z,11.50
2023-04-29T16:15:39.978Z,11.50
2023-04-29T16:18:06.520Z,11.40
2023-04-29T16:20:33.244Z,11.40
2023-04-29T16:22:59.751Z,11.40
2023-04-29T16:25:26.298Z,11.40
2023-04-29T16:27:52.807Z,11.50
2023-04-29T16:30:19.365Z,11.60
2023-04-29T16:32:46.171Z,11.50
2023-04-29T16:35:12.966Z,11.50
2023-04-29T16:37:39.537Z,11.50
2023-04-29T16:40:06.411Z,11.50
2023-04-29T16:42:32.896Z,11.50
2023-04-29T16:44:59.395Z,11.50
2023-04-29T16:47:25.971Z,11.50
2023-04-29T16:49:52.741Z,11.50
2023-04-29T16:52:20.619Z,11.50
2023-04-29T16:54:47.127Z,11.50
2023-04-29T16:57:13.703Z,11.40
2023-04-29T16:59:40.227Z,11.40
2023-04-29T17:04:57.447Z,11.20
2023-04-29T17:07:24.082Z,11.20
2023-04-29T17:09:50.944Z,11.20
2023-04-29T17:12:17.519Z,11.20
2023-04-29T17:14:44.258Z,11.20
2023-04-29T17:17:11.128Z,11.10
2023-04-29T17:19:37.642Z,11.10
2023-04-29T17:22:04.985Z,11.10
2023-04-29T17:24:32.567Z,11.10
2023-04-29T17:26:59.622Z,11.00
2023-04-29T17:29:26.128Z,11.00
2023-04-29T17:31:59.749Z,11.00
2023-04-29T17:34:29.904Z,11.00
2023-04-29T17:37:03.259Z,11.00
2023-04-29T17:39:29.969Z,11.00
2023-04-29T17:41:56.963Z,11.00
2023-04-29T17:44:23.819Z,10.90
2023-04-29T17:46:50.572Z,10.90
2023-04-29T17:49:17.485Z,11.00
2023-04-29T17:51:43.988Z,10.90
2023-04-29T17:54:10.538Z,11.00
2023-04-29T17:56:37.140Z,10.90
2023-04-29T17:59:05.359Z,10.80
2023-04-29T18:01:32.392Z,10.90
2023-04-29T18:03:58.973Z,10.90
2023-04-29T18:06:26.080Z,10.80
2023-04-29T18:08:52.669Z,10.70
2023-04-29T18:11:19.243Z,10.70
2023-04-29T18:13:45.910Z,10.60
2023-04-29T18:16:13.211Z,10.60
2023-04-29T18:18:39.814Z,10.60
2023-04-29T18:21:06.414Z,10.70
2023-04-29T18:23:32.935Z,10.70
2023-04-29T18:25:59.728Z,10.70
2023-04-29T18:28:27.060Z,10.70
2023-04-29T18:30:53.646Z,10.60
2023-04-29T18:33:20.373Z,10.60
2023-04-29T18:35:46.977Z,10.60
2023-04-29T18:38:17.055Z,10.60
2023-04-29T18:40:44.137Z,10.50
2023-04-29T18:43:12.020Z,10.50
2023-04-29T18:45:38.772Z,10.50
2023-04-29T18:48:06.818Z,10.60
2023-04-29T18:50:33.666Z,10.50
2023-04-29T18:53:00.308Z,10.50
2023-04-29T18:55:27.173Z,10.50
2023-04-29T18:57:55.507Z,10.40
2023-04-29T19:00:22.085Z,10.40
2023-04-29T19:02:48.923Z,10.40
2023-04-29T19:05:15.853Z,10.40
2023-04-29T19:07:42.754Z,10.40
2023-04-29T19:10:09.458Z,10.40
2023-04-29T19:12:36.096Z,10.40
2023-04-29T19:15:02.898Z,10.30
2023-04-29T19:17:29.568Z,10.30
2023-04-29T19:19:56.224Z,10.20
2023-04-29T19:22:22.921Z,10.20
2023-04-29T19:24:49.472Z,10.20
2023-04-29T19:27:16.110Z,10.20
2023-04-29T19:29:42.685Z,10.10
2023-04-29T19:32:09.586Z,10.10
2023-04-29T19:34:36.347Z,10.10
2023-04-29T19:37:03.323Z,10.20
2023-04-29T19:39:29.942Z,10.20
2023-04-29T19:41:57.782Z,10.10
2023-04-29T19:44:24.371Z,10.10
2023-04-29T19:46:51.811Z,10.10
2023-04-29T19:49:18.477Z,10.10
2023-04-29T19:51:45.049Z,10.10
2023-04-29T19:54:12.036Z,10.10
2023-04-29T19:56:38.664Z,10.10
2023-04-29T19:59:05.295Z,10.10
2023-04-29T20:01:31.843Z,10.10
2023-04-29T20:03:58.526Z,10.10
2023-04-29T20:06:25.733Z,10.10
2023-04-29T20:08:52.264Z,10.10
2023-04-29T20:11:18.996Z,10.10
2023-04-29T20:13:45.825Z,10.10
2023-04-29T20:16:12.646Z,10.00
2023-04-29T20:18:40.787Z,10.00
2023-04-29T20:21:07.634Z,10.00
2023-04-29T20:23:34.150Z,10.00
2023-04-29T20:26:01.573Z,10.00
2023-04-29T20:28:28.157Z,10.00
2023-04-29T20:30:54.756Z,10.00
2023-04-29T20:33:22.276Z,10.00
2023-04-29T20:35:49.609Z,10.00
2023-04-29T20:38:16.098Z,10.00
2023-04-29T20:40:43.504Z,10.00
2023-04-29T20:43:10.644Z,10.00
2023-04-29T20:45:37.535Z,10.00
2023-04-29T20:48:04.264Z,9.90
2023-04-29T20:50:30.934Z,10.00
2023-04-29T20:52:57.604Z,10.00
2023-04-29T20:55:24.736Z,10.00
2023-04-29T20:57:51.252Z,9.90
2023-04-29T21:00:17.861Z,9.90
2023-04-29T21:02:44.481Z,9.90
2023-04-29T21:05:11.182Z,9.90
2023-04-29T21:07:37.759Z,9.90
2023-04-29T21:10:04.819Z,9.90
2023-04-29T21:12:31.395Z,9.90
2023-04-29T21:14:57.910Z,9.90
2023-04-29T21:17:24.456Z,10.00
2023-04-29T21:19:51.009Z,10.00
2023-04-29T21:22:17.544Z,10.00
2023-04-29T21:24:44.142Z,10.00
2023-04-29T21:27:10.719Z,10.00
2023-04-29T21:29:41.551Z,10.00
2023-04-29T21:32:08.493Z,10.10
2023-04-29T21:34:35.868Z,10.10
2023-04-29T21:37:02.461Z,10.00
2023-04-29T21:39:31.302Z,10.00
2023-04-29T21:42:00.782Z,10.10
2023-04-29T21:44:27.401Z,10.00
2023-04-29T21:46:53.939Z,10.00
2023-04-29T21:49:20.653Z,10.00
2023-04-29T21:51:47.539Z,10.00
2023-04-29T21:54:14.043Z,10.00
2023-04-29T21:56:40.553Z,9.90
2023-04-29T21:59:07.085Z,10.00
2023-04-29T22:01:48.062Z,10.00
2023-04-29T22:04:16.176Z,10.00
2023-04-29T22:06:43.052Z,9.90
2023-04-29T22:09:10.192Z,9.90
2023-04-29T22:11:36.911Z,10.00
2023-04-29T22:14:03.470Z,9.90
2023-04-29T22:16:30.681Z,9.90
2023-04-29T22:18:58.302Z,9.90
2023-04-29T22:21:24.838Z,9.90
2023-04-29T22:23:51.453Z,10.00
2023-04-29T22:26:18.592Z,10.00
2023-04-29T22:28:45.249Z,9.90
2023-04-29T22:31:11.805Z,9.90
2023-04-29T22:33:38.324Z,10.00
2023-04-29T22:36:05.294Z,10.00
2023-04-29T22:38:31.877Z,10.00
2023-04-29T22:40:58.400Z,9.90
2023-04-29T22:43:25.181Z,9.90
2023-04-29T22:45:53.228Z,9.90
2023-04-29T22:48:19.917Z,9.90
2023-04-29T22:50:50.066Z,9.90
2023-04-29T22:53:16.583Z,10.00
2023-04-29T22:55:56.258Z,10.00
2023-04-29T22:58:25.211Z,9.90
2023-04-29T23:00:53.513Z,9.90
2023-04-29T23:03:20.450Z,9.90
2023-04-29T23:05:47.153Z,9.90
2023-04-29T23:08:13.698Z,9.90
2023-04-29T23:10:40.353Z,9.90
2023-04-29T23:13:06.965Z,9.90
2023-04-29T23:15:33.544Z,9.90
2023-04-29T23:18:00.232Z,9.90
2023-04-29T23:20:26.785Z,9.90
2023-04-29T23:22:53.332Z,9.90
2023-04-29T23:25:20.118Z,9.90
2023-04-29T23:27:46.681Z,9.90
2023-04-29T23:30:13.211Z,9.80
2023-04-29T23:32:39.809Z,9.90
2023-04-29T23:35:06.565Z,9.90
2023-04-29T23:37:33.189Z,9.80
2023-04-29T23:39:59.744Z,9.80
2023-04-29T23:42:27.230Z,9.80
2023-04-29T23:44:53.760Z,9.80
2023-04-29T23:47:21.171Z,9.80
2023-04-29T23:49:47.841Z,9.80
2023-04-29T23:52:14.504Z,9.70
2023-04-29T23:54:42.217Z,9.80
2023-04-29T23:57:08.778Z,9.70
2023-04-29T23:59:35.412Z,9.70
